Time;durP1;ratioP1;P1;durP2;ratioP2;P2;SDS_P1;SDS_P2;PMS_P1;PMS_P2;Temp;Humidity;BMP_temperature;BMP_pressure;BME280_temperature;BME280_humidity;BME280_pressure;Samples;Min_cycle;Max_cycle;Signal;HPM_P1;HPM_P2
2022/03/12 00:00:35;;;;;;;2.58;1.30;;;;;;;7.22;51.54;101950.66;2090251;28;20045;-80
2022/03/12 00:01:56;;;;;;;5.93;1.90;;;;;;;7.23;51.50;101958.56;2099442;28;20048;-80
2022/03/12 00:03:19;;;;;;;7.05;3.70;;;;;;;7.24;51.30;101955.13;2100952;28;20177;-81
2022/03/12 00:04:41;;;;;;;6.10;2.00;;;;;;;7.21;51.12;101952.38;2101171;28;20050;-80
2022/03/12 00:06:06;;;;;;;2.00;1.38;;;;;;;7.22;51.17;101955.03;2117702;28;20062;-80
2022/03/12 00:07:30;;;;;;;3.55;1.10;;;;;;;7.24;50.98;101956.84;2106346;28;20076;-80
2022/03/12 00:08:53;;;;;;;3.58;1.83;;;;;;;7.20;50.83;101951.47;2118271;28;20047;-81
2022/03/12 00:10:18;;;;;;;2.85;1.60;;;;;;;7.25;50.82;101940.25;2106355;28;20048;-80
2022/03/12 00:11:45;;;;;;;3.08;1.83;;;;;;;7.23;50.83;101940.19;2103727;28;20573;-80
2022/03/12 00:13:08;;;;;;;4.25;1.80;;;;;;;7.24;50.66;101943.72;2110574;28;20449;-81
2022/03/12 00:14:31;;;;;;;4.10;1.38;;;;;;;7.26;50.60;101935.09;2103774;28;20048;-80
2022/03/12 00:15:58;;;;;;;4.72;1.40;;;;;;;7.28;50.58;101943.97;2109947;28;20035;-80
2022/03/12 00:17:19;;;;;;;4.70;2.28;;;;;;;7.27;50.63;101936.91;2103797;28;20055;-81
2022/03/12 00:18:43;;;;;;;9.70;2.90;;;;;;;7.30;50.69;101941.38;2109040;28;20122;-81
2022/03/12 00:20:12;;;;;;;7.45;2.92;;;;;;;7.33;50.92;101938.91;2112060;28;20051;-80
2022/03/12 00:21:35;;;;;;;4.72;1.20;;;;;;;7.33;51.23;101945.06;2106024;28;20435;-80
2022/03/12 00:22:57;;;;;;;3.70;1.67;;;;;;;7.35;51.24;101947.78;2109488;28;20050;-81
2022/03/12 00:24:21;;;;;;;5.70;1.67;;;;;;;7.33;51.50;101946.78;2103592;28;20044;-81
2022/03/12 00:25:43;;;;;;;5.63;2.63;;;;;;;7.33;51.99;101946.78;2101203;28;20509;-81
2022/03/12 00:27:06;;;;;;;5.10;2.08;;;;;;;7.36;51.78;101949.53;2109184;28;20053;-80
2022/03/12 00:28:27;;;;;;;7.50;2.10;;;;;;;7.34;52.17;101957.38;2120424;28;20101;-80
2022/03/12 00:29:51;;;;;;;4.35;1.80;;;;;;;7.36;52.28;101957.44;2106136;28;20046;-81
2022/03/12 00:31:16;;;;;;;3.97;1.50;;;;;;;7.37;52.22;101947.00;2109646;28;20661;-81
2022/03/12 00:32:37;;;;;;;6.70;3.50;;;;;;;7.38;52.38;101947.91;2112099;28;20046;-80
2022/03/12 00:34:00;;;;;;;4.32;2.45;;;;;;;7.35;52.71;101940.75;2103477;28;20147;-81
2022/03/12 00:35:22;;;;;;;6.65;2.20;;;;;;;7.35;52.82;101946.03;2111742;28;20044;-79
2022/03/12 00:36:46;;;;;;;5.32;1.63;;;;;;;7.39;52.99;101952.34;2112150;28;20040;-81
2022/03/12 00:38:07;;;;;;;3.05;1.55;;;;;;;7.38;52.98;101950.53;2103655;28;20048;-81
2022/03/12 00:39:30;;;;;;;4.28;1.85;;;;;;;7.39;53.03;101950.59;2103383;28;20048;-80
2022/03/12 00:40:52;;;;;;;5.60;2.20;;;;;;;7.39;53.05;101941.81;2109397;28;20078;-81
2022/03/12 00:42:16;;;;;;;6.43;2.25;;;;;;;7.38;53.20;101942.66;2103732;28;20099;-81
2022/03/12 00:43:39;;;;;;;5.65;2.30;;;;;;;7.38;53.18;101940.94;2100723;28;20093;-80
2022/03/12 00:45:02;;;;;;;5.93;2.33;;;;;;;7.36;53.38;101937.31;2101040;28;20211;-81
2022/03/12 00:46:27;;;;;;;5.47;1.80;;;;;;;7.37;53.34;101932.97;2109077;28;20052;-81
2022/03/12 00:47:50;;;;;;;2.90;0.95;;;;;;;7.36;53.33;101929.44;2106100;28;20040;-81
2022/03/12 00:49:12;;;;;;;2.88;1.00;;;;;;;7.33;53.63;101920.53;2111902;28;20044;-81
2022/03/12 00:50:35;;;;;;;5.10;1.95;;;;;;;7.33;53.69;101917.91;2104769;28;20486;-81
2022/03/12 00:51:57;;;;;;;4.13;2.38;;;;;;;7.30;53.65;101929.16;2110771;28;20051;-81
2022/03/12 00:53:19;;;;;;;2.95;1.65;;;;;;;7.29;53.76;101939.56;2113277;28;20043;-81
2022/03/12 00:54:41;;;;;;;4.95;1.90;;;;;;;7.30;53.97;101938.75;2107683;28;20048;-81
2022/03/12 00:56:05;;;;;;;4.68;1.98;;;;;;;7.29;54.06;101929.97;2110757;28;20130;-81
2022/03/12 00:57:28;;;;;;;4.07;1.98;;;;;;;7.25;54.14;101924.50;2104969;28;20036;-81
2022/03/12 00:58:52;;;;;;;2.80;1.40;;;;;;;7.19;54.42;101939.16;2105198;28;20063;-81
2022/03/12 01:00:16;;;;;;;6.25;1.85;;;;;;;7.18;54.39;101936.44;2104922;28;20085;-81
2022/03/12 01:01:41;;;;;;;5.22;1.90;;;;;;;7.18;54.48;101942.59;2097078;28;20049;-80
2022/03/12 01:03:02;;;;;;;5.95;1.77;;;;;;;7.20;54.37;101938.34;2108423;28;20536;-81
2022/03/12 01:04:24;;;;;;;5.13;2.17;;;;;;;7.24;54.27;101938.47;2104882;28;20044;-81
2022/03/12 01:05:57;;;;;;;4.30;1.80;;;;;;;7.28;54.25;101940.44;2104916;28;20051;-81
2022/03/12 01:07:19;;;;;;;;;;;;;;;7.29;54.38;101934.31;2105347;28;20050;-82
2022/03/12 01:08:42;;;;;;;3.95;1.98;;;;;;;7.26;54.72;101929.84;2110746;28;19919;-81
2022/03/12 01:10:05;;;;;;;6.65;2.40;;;;;;;7.26;54.42;101935.09;2104858;28;20040;-81
2022/03/12 01:11:28;;;;;;;8.30;2.95;;;;;;;7.25;54.55;101927.13;2105123;28;20492;-81
2022/03/12 01:12:49;;;;;;;7.45;2.47;;;;;;;7.25;54.68;101935.00;2102136;28;20046;-82
2022/03/12 01:14:12;;;;;;;5.90;2.20;;;;;;;7.27;54.39;101944.78;2119008;27;20081;-81
2022/03/12 01:15:34;;;;;;;2.83;1.20;;;;;;;7.26;54.58;101940.34;2107464;28;20153;-81
2022/03/12 01:16:59;;;;;;;5.88;1.63;;;;;;;7.24;54.75;101944.63;2110521;28;20040;-82
2022/03/12 01:18:23;;;;;;;4.10;1.85;;;;;;;7.24;54.91;101946.34;2113386;28;20135;-81
2022/03/12 01:19:47;;;;;;;4.38;1.95;;;;;;;7.24;55.01;101951.59;2104961;28;20072;-82
2022/03/12 01:21:12;;;;;;;4.93;2.17;;;;;;;7.20;55.11;101946.22;2110599;28;20392;-80
2022/03/12 01:22:38;;;;;;;5.55;2.30;;;;;;;7.19;55.18;101944.41;2105203;28;20522;-81
2022/03/12 01:24:00;;;;;;;5.40;1.50;;;;;;;7.17;55.03;101946.03;2111185;28;20058;-81
2022/03/12 01:25:22;;;;;;;7.68;2.13;;;;;;;7.15;55.00;101947.69;2104765;28;20433;-81
2022/03/12 01:26:45;;;;;;;9.75;3.17;;;;;;;7.15;54.98;101947.69;2110183;28;20043;-80
2022/03/12 01:28:07;;;;;;;8.05;2.72;;;;;;;7.19;54.55;101949.66;2104585;28;20056;-81
2022/03/12 01:29:30;;;;;;;9.43;3.40;;;;;;;7.20;54.83;101946.22;2110700;28;20047;-80
2022/03/12 01:30:54;;;;;;;4.85;1.58;;;;;;;7.18;54.97;101924.22;2107204;28;20044;-80
2022/03/12 01:32:18;;;;;;;3.25;1.83;;;;;;;7.16;55.05;101919.72;2110954;28;20078;-81
2022/03/12 01:33:41;;;;;;;2.03;1.35;;;;;;;7.10;55.31;101927.28;2104761;28;20068;-81
2022/03/12 01:35:04;;;;;;;5.05;1.58;;;;;;;7.06;55.56;101933.22;2096212;28;20044;-82
2022/03/12 01:36:27;;;;;;;5.30;1.85;;;;;;;7.07;55.66;101954.31;2107907;28;20614;-81
2022/03/12 01:37:48;;;;;;;4.32;1.38;;;;;;;7.08;55.45;101942.09;2096213;28;20049;-80
2022/03/12 01:39:11;;;;;;;3.85;1.48;;;;;;;7.07;55.79;101946.44;2101732;28;20102;-81
2022/03/12 01:40:34;;;;;;;5.28;1.88;;;;;;;7.05;55.82;101939.31;2101792;28;20092;-81
2022/03/12 01:41:57;;;;;;;3.97;1.83;;;;;;;7.02;56.07;101936.56;2102047;28;20142;-81
2022/03/12 01:43:19;;;;;;;5.63;2.47;;;;;;;7.04;56.06;101933.16;2110411;28;20143;-81
2022/03/12 01:44:42;;;;;;;6.00;2.28;;;;;;;7.07;56.04;101924.53;2104474;28;20047;-81
2022/03/12 01:46:11;;;;;;;3.47;1.55;;;;;;;7.07;56.19;101920.19;2110340;28;20100;-81
2022/03/12 01:47:35;;;;;;;2.58;1.67;;;;;;;7.04;56.56;101924.38;2105213;28;20044;-80
2022/03/12 01:48:59;;;;;;;4.68;1.85;;;;;;;7.03;56.43;101926.09;2110255;28;20134;-81
2022/03/12 01:50:24;;;;;;;5.38;2.42;;;;;;;7.06;56.61;101935.88;2104666;28;20052;-81
2022/03/12 01:51:48;;;;;;;2.58;1.40;;;;;;;7.06;57.44;101936.75;2113298;28;20044;-81
2022/03/12 01:53:12;;;;;;;1.42;0.65;;;;;;;6.99;57.81;101933.75;2107161;28;20044;-82
2022/03/12 01:54:35;;;;;;;2.72;1.83;;;;;;;6.73;60.53;101928.13;2104569;28;20135;-81
2022/03/12 01:55:57;;;;;;;3.58;1.63;;;;;;;6.60;61.02;101944.09;2093814;28;20056;-81
2022/03/12 01:57:19;;;;;;;6.90;1.90;;;;;;;6.59;61.13;101944.00;2099192;28;20048;-80
2022/03/12 01:58:46;;;;;;;5.55;2.60;;;;;;;6.59;61.21;101938.75;2101722;28;20054;-80
2022/03/12 02:00:23;;;;;;;7.70;2.70;;;;;;;6.59;61.32;101946.63;2104967;28;20040;-80
2022/03/12 02:01:46;;;;;;;5.45;2.30;;;;;;;6.59;61.21;101941.38;2106231;28;20053;-81
2022/03/12 02:03:12;;;;;;;4.70;1.70;;;;;;;6.61;61.08;101943.28;2110226;28;20036;-80
2022/03/12 02:04:35;;;;;;;6.38;2.00;;;;;;;6.61;61.48;101943.28;2104867;28;20507;-80
2022/03/12 02:05:58;;;;;;;3.95;1.70;;;;;;;6.59;61.59;101938.75;2104280;28;20054;-80
2022/03/12 02:07:21;;;;;;;6.40;1.92;;;;;;;6.60;61.37;101938.84;2102345;28;20183;-80
2022/03/12 02:08:48;;;;;;;1.85;1.10;;;;;;;6.59;61.05;101944.91;2110080;28;20530;-80
2022/03/12 02:10:20;;;;;;;4.20;1.85;;;;;;;6.57;60.89;101937.75;2104897;28;20055;-80
2022/03/12 02:11:45;;;;;;;4.38;1.60;;;;;;;6.62;60.59;101945.06;2105429;28;20036;-79
2022/03/12 02:13:07;;;;;;;3.92;1.67;;;;;;;6.66;60.48;101943.50;2102253;28;20538;-80
2022/03/12 02:14:30;;;;;;;5.20;1.75;;;;;;;6.67;60.30;101950.53;2112903;28;20500;-79
2022/03/12 02:16:00;;;;;;;5.60;2.00;;;;;;;6.70;60.22;101950.69;2104222;28;20055;-80
2022/03/12 02:17:22;;;;;;;6.22;2.92;;;;;;;6.71;60.16;101947.22;2111650;28;20084;-79
2022/03/12 02:18:48;;;;;;;2.35;1.45;;;;;;;6.75;59.96;101941.34;2104164;28;20040;-80
2022/03/12 02:20:11;;;;;;;9.05;2.08;;;;;;;6.77;60.00;101929.16;2102346;28;20094;-80
2022/03/12 02:21:38;;;;;;;3.45;2.17;;;;;;;6.77;60.07;101927.44;2101960;28;20376;-80
2022/03/12 02:23:01;;;;;;;5.03;1.75;;;;;;;6.77;60.00;101934.41;2111221;28;20094;-80
2022/03/12 02:24:27;;;;;;;2.53;1.35;;;;;;;6.84;59.60;101943.50;2106697;28;20075;-80
2022/03/12 02:25:49;;;;;;;5.53;1.73;;;;;;;6.86;59.38;101940.13;2102251;28;20090;-80
2022/03/12 02:27:12;;;;;;;4.63;2.22;;;;;;;6.88;59.97;101938.50;2110005;28;20075;-80
2022/03/12 02:28:35;;;;;;;4.88;1.98;;;;;;;6.88;59.91;101942.84;2104141;28;20044;-80
2022/03/12 02:29:59;;;;;;;6.63;2.55;;;;;;;6.89;59.97;101935.06;2101781;28;20577;-80
2022/03/12 02:31:26;;;;;;;3.72;1.48;;;;;;;6.91;60.38;101933.38;2110308;28;20098;-80
2022/03/12 02:32:53;;;;;;;5.55;2.47;;;;;;;6.93;60.22;101939.63;2104811;28;20032;-80
2022/03/12 02:34:21;;;;;;;4.72;2.47;;;;;;;6.94;60.35;101936.19;2106820;28;20140;-81
2022/03/12 02:35:47;;;;;;;5.20;2.20;;;;;;;6.95;60.18;101943.22;2111252;28;20043;-81
2022/03/12 02:37:10;;;;;;;4.78;2.45;;;;;;;7.01;59.92;101950.50;2104541;28;20060;-80
2022/03/12 02:38:34;;;;;;;4.55;2.33;;;;;;;7.03;59.94;101947.09;2101520;28;20044;-80
2022/03/12 02:40:00;;;;;;;4.82;1.63;;;;;;;7.07;59.78;101946.44;2101939;28;20044;-81
2022/03/12 02:41:24;;;;;;;6.75;1.35;;;;;;;7.06;60.03;101951.63;2102223;28;20052;-80
2022/03/12 02:42:50;;;;;;;3.33;1.58;;;;;;;7.08;60.04;101953.50;2110323;28;20053;-80
2022/03/12 02:44:18;;;;;;;2.92;1.75;;;;;;;7.08;60.43;101949.97;2104361;28;20165;-80
2022/03/12 02:45:43;;;;;;;9.65;3.20;;;;;;;7.10;60.26;101948.28;2103995;28;20114;-81
2022/03/12 02:47:12;;;;;;;6.38;2.25;;;;;;;7.14;60.19;101939.75;2109627;28;20048;-80
2022/03/12 02:48:35;;;;;;;2.85;1.80;;;;;;;7.12;60.15;101947.56;2105008;28;20100;-80
2022/03/12 02:50:02;;;;;;;5.68;2.45;;;;;;;7.10;59.72;101949.19;2112448;28;20051;-80
2022/03/12 02:51:26;;;;;;;2.40;1.52;;;;;;;7.11;59.73;101958.88;2112860;28;20028;-80
2022/03/12 02:52:48;;;;;;;2.45;1.27;;;;;;;7.11;59.74;101937.88;2104307;28;20097;-80
2022/03/12 02:54:11;;;;;;;5.18;1.90;;;;;;;7.12;59.58;101947.56;2118252;27;20043;-80
2022/03/12 02:55:45;;;;;;;6.05;1.58;;;;;;;7.13;59.78;101951.09;2106698;28;20067;-80
2022/03/12 02:57:06;;;;;;;4.18;1.73;;;;;;;7.10;59.72;101949.19;2103758;28;20491;-80
2022/03/12 02:58:29;;;;;;;5.57;1.63;;;;;;;7.08;59.55;101958.75;2109257;28;20075;-79
2022/03/12 02:59:53;;;;;;;3.85;1.65;;;;;;;7.01;59.80;101961.00;2103929;28;20039;-80
2022/03/12 03:01:15;;;;;;;2.50;1.67;;;;;;;6.75;60.84;101951.84;2110249;28;20051;-79
2022/03/12 03:02:41;;;;;;;4.50;2.03;;;;;;;6.53;62.16;101941.06;2114862;28;20175;-79
2022/03/12 03:04:08;;;;;;;3.25;1.60;;;;;;;6.40;62.51;101956.19;2113251;28;20055;-80
2022/03/12 03:05:35;;;;;;;2.67;1.55;;;;;;;6.42;62.55;101952.75;2103534;28;20077;-78
2022/03/12 03:07:00;;;;;;;7.22;1.60;;;;;;;6.38;63.20;101951.69;2110968;28;20105;-79
2022/03/12 03:08:23;;;;;;;2.40;1.58;;;;;;;6.33;63.92;101951.44;2112442;28;20048;-79
2022/03/12 03:09:46;;;;;;;2.55;1.52;;;;;;;6.28;64.04;101952.94;2106319;28;20036;-79
2022/03/12 03:11:16;;;;;;;3.05;1.63;;;;;;;6.27;64.09;101945.88;2101478;28;20047;-79
2022/03/12 03:12:39;;;;;;;7.63;1.80;;;;;;;6.26;64.17;101936.22;2102301;28;20043;-79
2022/03/12 03:14:01;;;;;;;3.05;1.55;;;;;;;6.32;63.75;101944.41;2109493;28;20533;-79
2022/03/12 03:15:22;;;;;;;3.92;1.85;;;;;;;6.36;63.57;101946.38;2106595;28;20044;-79
2022/03/12 03:16:47;;;;;;;3.58;1.88;;;;;;;6.42;63.36;101937.00;2112024;28;20101;-80
2022/03/12 03:18:13;;;;;;;6.45;1.90;;;;;;;6.43;63.31;101934.47;2103853;28;20100;-79
2022/03/12 03:19:36;;;;;;;2.83;1.52;;;;;;;6.39;63.07;101933.41;2102164;28;20048;-80
2022/03/12 03:20:59;;;;;;;2.25;1.48;;;;;;;6.36;63.27;101940.22;2101311;28;20043;-80
2022/03/12 03:22:22;;;;;;;3.00;1.05;;;;;;;6.32;62.80;101939.16;2101415;28;20380;-80
2022/03/12 03:23:44;;;;;;;2.15;1.35;;;;;;;6.36;62.69;101940.22;2103618;28;20135;-80
2022/03/12 03:25:06;;;;;;;;;;;;;;;6.44;62.32;101930.09;2109957;28;20109;-80
2022/03/12 03:26:52;;;;;;;;;;;;;;;6.49;62.19;101939.13;2104187;28;20011;-79
2022/03/12 03:28:15;;;;;;;4.05;2.10;;;;;;;6.50;62.10;101940.94;2106404;28;19927;-80
2022/03/12 03:29:38;;;;;;;5.63;2.95;;;;;;;6.53;61.66;101938.44;2101155;28;20050;-80
2022/03/12 03:31:00;;;;;;;5.82;2.45;;;;;;;6.58;60.92;101944.81;2101501;28;20070;-80
2022/03/12 03:32:22;;;;;;;6.78;1.88;;;;;;;6.64;60.25;101943.41;2100846;28;20040;-80
2022/03/12 03:33:43;;;;;;;8.32;2.35;;;;;;;6.68;59.96;101941.84;2100928;28;20444;-80
2022/03/12 03:35:07;;;;;;;3.05;1.50;;;;;;;6.70;59.79;101942.81;2100900;28;20122;-80
2022/03/12 03:36:30;;;;;;;5.05;2.35;;;;;;;6.73;59.42;101943.88;2100957;28;20048;-80
2022/03/12 03:37:52;;;;;;;3.72;2.17;;;;;;;6.76;59.24;101951.03;2101302;28;20147;-80
2022/03/12 03:39:16;;;;;;;4.78;2.53;;;;;;;6.79;59.38;101948.53;2101254;28;20061;-79
2022/03/12 03:40:38;;;;;;;5.25;1.98;;;;;;;6.81;59.07;101941.63;2101111;28;20131;-80
2022/03/12 03:42:02;;;;;;;4.88;1.95;;;;;;;6.84;59.02;101943.50;2109476;28;20092;-80
2022/03/12 03:43:25;;;;;;;3.53;1.70;;;;;;;6.85;59.09;101943.56;2106351;28;20043;-81
2022/03/12 03:44:48;;;;;;;4.40;1.90;;;;;;;6.86;58.93;101950.63;2109438;28;20044;-80
2022/03/12 03:46:11;;;;;;;2.05;1.00;;;;;;;6.89;59.12;101942.94;2103826;28;20138;-80
2022/03/12 03:47:33;;;;;;;2.95;1.35;;;;;;;6.90;59.01;101949.03;2109579;28;20130;-80
2022/03/12 03:48:56;;;;;;;3.33;1.50;;;;;;;6.92;58.83;101947.41;2103924;28;20189;-81
2022/03/12 03:50:25;;;;;;;3.13;1.30;;;;;;;6.95;59.07;101948.47;2109436;28;20060;-79
2022/03/12 03:51:48;;;;;;;8.00;2.50;;;;;;;6.98;58.78;101953.84;2114544;28;20044;-79
2022/03/12 03:53:12;;;;;;;2.60;0.70;;;;;;;6.99;58.68;101939.91;2111920;28;20096;-79
2022/03/12 03:54:34;;;;;;;2.55;1.30;;;;;;;6.98;58.65;101939.84;2103763;28;20050;-79
2022/03/12 03:55:59;;;;;;;4.63;1.70;;;;;;;6.99;58.49;101947.78;2100815;28;20453;-79
2022/03/12 03:57:24;;;;;;;4.20;1.65;;;;;;;7.01;57.94;101938.28;2093367;28;20585;-79
2022/03/12 03:58:45;;;;;;;1.10;0.55;;;;;;;7.00;57.96;101941.72;2107912;28;20522;-79
2022/03/12 04:00:10;;;;;;;3.65;0.95;;;;;;;6.97;57.96;101936.31;2103550;28;20056;-80
2022/03/12 04:01:40;;;;;;;2.58;1.35;;;;;;;6.95;58.06;101937.06;2110386;28;20039;-79
2022/03/12 04:03:02;;;;;;;4.28;1.60;;;;;;;6.97;58.16;101936.31;2106155;28;20079;-80
2022/03/12 04:04:28;;;;;;;5.10;1.23;;;;;;;7.00;58.02;101941.72;2112109;28;20051;-80
2022/03/12 04:05:51;;;;;;;2.38;1.20;;;;;;;6.97;57.95;101941.56;2112519;28;20042;-81
2022/03/12 04:07:14;;;;;;;2.72;0.93;;;;;;;6.99;58.43;101944.25;2103502;28;20040;-81
2022/03/12 04:08:37;;;;;;;4.00;1.35;;;;;;;6.98;59.00;101937.22;2101001;28;20032;-80
2022/03/12 04:10:00;;;;;;;5.57;1.90;;;;;;;6.99;59.55;101939.91;2101075;28;20146;-80
2022/03/12 04:11:25;;;;;;;7.78;2.30;;;;;;;6.98;59.82;101938.09;2109901;28;20081;-81
2022/03/12 04:12:48;;;;;;;2.28;1.30;;;;;;;6.92;60.38;101943.06;2103573;28;20036;-80
2022/03/12 04:14:11;;;;;;;2.85;1.35;;;;;;;6.84;60.85;101933.00;2106210;28;20040;-80
2022/03/12 04:15:32;;;;;;;3.53;1.70;;;;;;;6.76;61.75;101935.28;2100842;28;20032;-81
2022/03/12 04:16:58;;;;;;;2.92;1.45;;;;;;;6.69;62.03;101944.56;2101314;28;20052;-80
2022/03/12 04:18:21;;;;;;;2.88;0.90;;;;;;;6.66;62.57;101941.78;2106316;28;20051;-80
2022/03/12 04:19:43;;;;;;;3.30;1.77;;;;;;;6.56;63.24;101936.00;2103693;28;20090;-80
2022/03/12 04:21:08;;;;;;;2.25;1.20;;;;;;;6.48;63.48;101943.47;2103577;28;20131;-81
2022/03/12 04:22:31;;;;;;;4.35;1.80;;;;;;;6.46;63.77;101950.34;2109894;28;20055;-80
2022/03/12 04:23:53;;;;;;;5.85;1.85;;;;;;;6.46;63.51;101945.09;2104075;28;20067;-80
2022/03/12 04:25:15;;;;;;;7.15;1.92;;;;;;;6.49;63.31;101949.63;2104973;28;20496;-81
2022/03/12 04:26:40;;;;;;;;;;;;;;;6.52;63.65;101957.63;2103018;28;20044;-81
2022/03/12 04:28:08;;;;;;;6.38;2.88;;;;;;;6.51;63.92;101954.09;2111853;28;19973;-81
2022/03/12 04:29:30;;;;;;;4.15;2.10;;;;;;;6.50;63.36;101957.53;2105363;28;20044;-79
2022/03/12 04:30:52;;;;;;;3.75;1.65;;;;;;;6.50;63.30;101961.91;2102462;28;20130;-80
2022/03/12 04:32:16;;;;;;;4.43;1.80;;;;;;;6.49;63.07;101967.97;2110649;28;20043;-80
2022/03/12 04:33:40;;;;;;;4.70;1.88;;;;;;;6.49;62.84;101966.25;2107492;28;20044;-80
2022/03/12 04:35:02;;;;;;;3.28;1.65;;;;;;;6.52;62.74;101961.16;2111243;28;20130;-80
2022/03/12 04:36:25;;;;;;;4.75;1.85;;;;;;;6.55;62.59;101966.56;2104876;28;20048;-80
2022/03/12 04:37:46;;;;;;;4.18;1.42;;;;;;;6.55;62.42;101952.56;2110766;28;20039;-80
2022/03/12 04:39:09;;;;;;;1.50;0.80;;;;;;;6.54;62.79;101956.00;2104723;28;20044;-80
2022/03/12 04:40:30;;;;;;;1.77;1.23;;;;;;;6.52;63.02;101955.00;2102221;28;20135;-80
2022/03/12 04:41:53;;;;;;;5.25;2.28;;;;;;;6.52;63.06;101958.53;2102319;28;20052;-80
2022/03/12 04:43:17;;;;;;;3.88;2.50;;;;;;;6.58;62.91;101950.06;2102569;28;20040;-80
2022/03/12 04:44:39;;;;;;;5.70;2.63;;;;;;;6.64;62.42;101947.75;2110865;28;20051;-80
2022/03/12 04:46:02;;;;;;;4.93;2.15;;;;;;;6.68;62.33;101939.22;2104708;28;20495;-80
2022/03/12 04:47:24;;;;;;;3.40;2.10;;;;;;;6.65;62.20;101949.56;2102614;28;20051;-79
2022/03/12 04:48:46;;;;;;;2.58;1.55;;;;;;;6.59;62.49;101955.41;2102120;28;20040;-80
2022/03/12 04:50:09;;;;;;;4.25;1.75;;;;;;;6.56;62.84;101964.84;2102244;28;20063;-79
2022/03/12 04:51:31;;;;;;;6.63;2.25;;;;;;;6.52;63.39;101962.88;2102343;28;20040;-78
2022/03/12 04:52:57;;;;;;;5.45;2.30;;;;;;;6.50;63.35;101964.53;2110615;28;20142;-79
2022/03/12 04:54:19;;;;;;;5.55;1.85;;;;;;;6.47;63.58;101959.13;2105264;28;20059;-79
2022/03/12 04:55:44;;;;;;;4.18;2.03;;;;;;;6.43;63.58;101952.84;2110599;28;20179;-78
2022/03/12 04:57:07;;;;;;;4.10;1.60;;;;;;;6.38;63.94;101960.44;2105314;28;20040;-79
2022/03/12 04:58:30;;;;;;;3.78;2.03;;;;;;;6.34;64.34;101966.38;2110644;28;20135;-79
2022/03/12 04:59:52;;;;;;;6.00;2.28;;;;;;;6.33;64.10;101959.31;2104876;28;20040;-79
2022/03/12 05:01:15;;;;;;;2.97;1.70;;;;;;;6.37;64.38;101971.75;2102226;28;20423;-79
2022/03/12 05:02:36;;;;;;;4.95;1.90;;;;;;;6.37;63.97;101966.50;2102221;28;20043;-79
2022/03/12 05:03:59;;;;;;;4.10;2.25;;;;;;;6.44;63.87;101967.72;2102144;28;20086;-79
2022/03/12 05:05:21;;;;;;;5.47;2.40;;;;;;;6.53;63.67;101972.56;2113145;28;20150;-80
2022/03/12 05:06:43;;;;;;;6.80;2.50;;;;;;;6.54;63.53;101982.22;2107499;28;20044;-79
2022/03/12 05:08:06;;;;;;;6.63;2.53;;;;;;;6.56;63.26;101980.59;2113269;28;20043;-79
2022/03/12 05:09:28;;;;;;;4.63;1.58;;;;;;;6.58;62.99;101977.19;2104691;28;20086;-79
2022/03/12 05:10:53;;;;;;;4.50;1.95;;;;;;;6.59;62.63;101976.38;2110547;28;20054;-80
2022/03/12 05:12:23;;;;;;;6.65;2.45;;;;;;;6.59;62.33;101979.00;2105801;28;20056;-79
2022/03/12 05:13:49;;;;;;;4.90;2.33;;;;;;;6.62;62.33;101984.44;2102710;28;20040;-78
2022/03/12 05:15:15;;;;;;;4.50;2.45;;;;;;;6.64;62.16;101979.22;2105029;28;20458;-79
2022/03/12 05:16:38;;;;;;;5.07;2.70;;;;;;;6.69;61.63;101980.41;2102972;28;20028;-78
2022/03/12 05:18:00;;;;;;;10.20;4.65;;;;;;;6.75;61.56;101972.81;2110613;28;20546;-79
2022/03/12 05:19:23;;;;;;;8.07;3.25;;;;;;;6.81;61.29;101983.63;2104508;28;20062;-78
2022/03/12 05:20:46;;;;;;;7.13;2.83;;;;;;;6.86;61.02;101981.22;2118801;27;20055;-78
2022/03/12 05:22:09;;;;;;;3.55;1.30;;;;;;;6.88;60.70;101971.72;2115697;28;20169;-79
2022/03/12 05:23:32;;;;;;;6.38;2.13;;;;;;;6.89;60.61;101978.78;2107165;28;20056;-79
2022/03/12 05:24:53;;;;;;;4.32;2.13;;;;;;;6.91;60.44;101972.75;2104733;28;20077;-79
2022/03/12 05:26:16;;;;;;;8.38;4.38;;;;;;;6.93;60.36;101983.34;2110286;28;20494;-79
2022/03/12 05:27:37;;;;;;;7.97;3.60;;;;;;;6.93;60.43;101984.22;2113095;28;20047;-79
2022/03/12 05:29:01;;;;;;;3.88;2.15;;;;;;;6.98;60.27;101989.72;2107148;28;20845;-79
2022/03/12 05:30:23;;;;;;;7.13;2.15;;;;;;;6.98;60.45;101990.59;2110559;28;20470;-78
2022/03/12 05:31:46;;;;;;;5.00;2.33;;;;;;;6.96;60.19;101983.47;2104690;28;20060;-80
2022/03/12 05:33:09;;;;;;;6.13;2.58;;;;;;;6.92;59.80;101979.81;2101868;28;20076;-79
2022/03/12 05:34:32;;;;;;;5.20;3.25;;;;;;;6.95;59.93;101976.44;2102130;28;20190;-79
2022/03/12 05:35:56;;;;;;;6.57;3.85;;;;;;;6.99;59.88;101986.25;2101492;28;20052;-79
2022/03/12 05:37:19;;;;;;;8.27;3.13;;;;;;;7.00;59.91;101975.84;2110362;28;20124;-79
2022/03/12 05:38:42;;;;;;;8.23;4.50;;;;;;;7.01;59.76;101968.88;2104612;28;20044;-79
2022/03/12 05:40:04;;;;;;;5.10;2.45;;;;;;;7.03;59.85;101975.97;2110457;28;20142;-79
2022/03/12 05:41:29;;;;;;;14.73;6.78;;;;;;;7.04;59.87;101983.03;2096176;28;20124;-79
2022/03/12 05:42:53;;;;;;;5.03;3.40;;;;;;;7.04;59.75;101992.63;2108650;28;20044;-80
2022/03/12 05:44:17;;;;;;;9.65;5.63;;;;;;;7.00;59.79;101998.56;2104657;28;20055;-80
2022/03/12 05:45:40;;;;;;;4.50;1.45;;;;;;;6.93;59.88;101999.09;2110543;28;20063;-79
2022/03/12 05:47:03;;;;;;;5.53;2.58;;;;;;;6.88;60.22;102001.50;2104334;28;20048;-79
2022/03/12 05:48:25;;;;;;;3.85;1.20;;;;;;;6.89;60.44;102005.03;2101703;28;20071;-79
2022/03/12 05:49:47;;;;;;;;;;;;;;;6.88;60.61;102008.47;2110632;28;20491;-80
2022/03/12 05:51:09;;;;;;;20.73;11.63;;;;;;;6.88;60.39;102004.13;2104520;28;19940;-79
2022/03/12 05:52:32;;;;;;;7.93;3.45;;;;;;;6.91;60.37;102004.25;2101811;28;20044;-79
2022/03/12 05:53:54;;;;;;;9.13;3.22;;;;;;;6.94;60.05;102012.28;2110129;28;20521;-79
2022/03/12 05:55:19;;;;;;;4.95;2.83;;;;;;;6.98;60.10;102006.34;2106993;28;20135;-79
2022/03/12 05:56:42;;;;;;;5.57;2.40;;;;;;;7.02;59.94;102016.16;2119295;27;20370;-79
2022/03/12 05:58:04;;;;;;;3.53;2.03;;;;;;;7.05;59.64;102018.06;2106896;28;20048;-79
2022/03/12 05:59:29;;;;;;;5.00;2.40;;;;;;;7.06;59.83;102012.00;2104169;28;20135;-80
2022/03/12 06:00:54;;;;;;;4.10;1.73;;;;;;;7.05;59.83;102018.06;2102028;28;20089;-80
2022/03/12 06:02:17;;;;;;;2.20;1.35;;;;;;;7.03;59.79;102028.47;2102501;28;20576;-80
2022/03/12 06:03:41;;;;;;;5.13;2.28;;;;;;;6.96;59.99;102030.72;2101982;28;20495;-80
2022/03/12 06:05:04;;;;;;;5.15;2.53;;;;;;;6.93;60.00;102039.34;2096155;28;20056;-79
2022/03/12 06:06:29;;;;;;;15.00;4.32;;;;;;;6.94;60.18;102038.53;2107817;28;20096;-79
2022/03/12 06:07:53;;;;;;;9.00;4.40;;;;;;;6.96;59.83;102041.22;2113119;28;20051;-79
2022/03/12 06:09:15;;;;;;;5.40;2.42;;;;;;;6.97;59.94;102035.16;2112645;28;20396;-78
2022/03/12 06:10:38;;;;;;;3.92;2.08;;;;;;;6.99;59.81;102044.91;2104132;28;20044;-79
2022/03/12 06:12:01;;;;;;;6.05;2.13;;;;;;;7.02;59.68;102044.19;2110419;28;20459;-80
2022/03/12 06:13:27;;;;;;;13.02;7.28;;;;;;;7.02;59.71;102036.31;2104257;28;20178;-80
2022/03/12 06:14:56;;;;;;;6.22;2.65;;;;;;;7.04;59.68;102042.50;2102723;28;20040;-81
2022/03/12 06:16:19;;;;;;;3.85;1.65;;;;;;;7.04;59.68;102053.00;2103269;28;20055;-80
2022/03/12 06:17:42;;;;;;;4.15;1.85;;;;;;;7.04;59.47;102046.03;2101724;28;20487;-80
2022/03/12 06:19:05;;;;;;;33.03;14.40;;;;;;;7.08;59.47;102057.63;2101593;28;20145;-80
2022/03/12 06:20:27;;;;;;;19.67;8.70;;;;;;;7.09;59.38;102051.50;2093085;28;20131;-80
2022/03/12 06:21:50;;;;;;;5.85;3.53;;;;;;;7.12;59.40;102049.97;2101528;28;20112;-80
2022/03/12 06:23:13;;;;;;;20.08;11.43;;;;;;;7.16;59.22;102049.28;2104136;28;20048;-80
2022/03/12 06:24:35;;;;;;;13.77;6.20;;;;;;;7.20;59.24;102045.09;2104217;28;20039;-81
2022/03/12 06:25:58;;;;;;;19.35;7.93;;;;;;;7.25;59.14;102047.94;2101546;28;20139;-81
2022/03/12 06:27:20;;;;;;;10.60;6.20;;;;;;;7.25;59.23;102046.22;2101630;28;20060;-81
2022/03/12 06:28:44;;;;;;;8.02;3.63;;;;;;;7.27;59.34;102054.19;2104236;28;20040;-80
2022/03/12 06:30:11;;;;;;;10.10;5.20;;;;;;;7.25;59.35;102064.59;2104101;28;20055;-81
2022/03/12 06:31:33;;;;;;;15.98;7.90;;;;;;;7.23;59.65;102066.25;2110999;28;20035;-81
2022/03/12 06:32:57;;;;;;;8.85;3.25;;;;;;;7.21;59.39;102062.66;2104092;28;20048;-81
2022/03/12 06:34:19;;;;;;;8.55;3.63;;;;;;;7.19;59.57;102061.66;2101804;28;20492;-82